createdAt,value
2023-06-03T00:00:13.436Z,4.40
2023-06-03T00:02:40.566Z,4.10
2023-06-03T00:05:07.936Z,4.10
2023-06-03T00:07:34.536Z,3.90
2023-06-03T00:10:01.258Z,4.20
2023-06-03T00:12:28.194Z,4.70
2023-06-03T00:14:54.876Z,4.40
2023-06-03T00:17:21.545Z,4.80
2023-06-03T00:19:48.404Z,4.80
2023-06-03T00:22:15.393Z,4.60
2023-06-03T00:24:41.967Z,4.80
2023-06-03T00:27:08.977Z,4.70
2023-06-03T00:29:36.058Z,4.40
2023-06-03T00:32:02.743Z,4.50
2023-06-03T00:34:29.587Z,4.70
2023-06-03T00:36:56.206Z,5.40
2023-06-03T00:39:23.368Z,5.20
2023-06-03T00:41:49.880Z,4.40
2023-06-03T00:44:16.471Z,5.10
2023-06-03T00:46:43.234Z,5.40
2023-06-03T00:49:10.235Z,5.10
2023-06-03T00:51:37.486Z,4.60
2023-06-03T00:54:04.575Z,5.00
2023-06-03T00:56:38.937Z,5.00
2023-06-03T00:59:05.443Z,5.00
2023-06-03T01:01:31.996Z,5.00
2023-06-03T01:03:59.062Z,5.20
2023-06-03T01:06:33.761Z,5.50
2023-06-03T01:09:25.396Z,4.80
2023-06-03T01:14:41.274Z,5.60
2023-06-03T01:17:08.766Z,5.50
2023-06-03T01:19:45.603Z,5.50
2023-06-03T01:22:13.327Z,5.50
2023-06-03T01:24:39.973Z,5.20
2023-06-03T01:27:06.989Z,5.40
2023-06-03T01:29:33.476Z,5.80
2023-06-03T01:32:01.383Z,5.40
2023-06-03T01:34:28.860Z,5.60
2023-06-03T01:36:57.566Z,4.80
2023-06-03T01:39:24.778Z,5.20
2023-06-03T01:41:53.632Z,5.10
2023-06-03T01:44:20.172Z,5.30
2023-06-03T01:46:47.292Z,5.10
2023-06-03T01:49:15.096Z,5.30
2023-06-03T01:51:41.950Z,5.70
2023-06-03T01:54:08.414Z,5.30
2023-06-03T01:56:34.934Z,6.60
2023-06-03T01:59:01.481Z,5.70
2023-06-03T02:01:28.017Z,5.80
2023-06-03T02:03:54.914Z,5.40
2023-06-03T02:06:21.432Z,5.70
2023-06-03T02:08:47.914Z,5.60
2023-06-03T02:11:14.442Z,5.90
2023-06-03T02:13:41.111Z,6.10
2023-06-03T02:16:07.596Z,5.60
2023-06-03T02:18:34.086Z,6.50
2023-06-03T02:21:00.661Z,6.50
2023-06-03T02:23:27.198Z,6.30
2023-06-03T02:25:53.948Z,5.90
2023-06-03T02:28:20.520Z,6.60
2023-06-03T02:30:47.215Z,7.10
2023-06-03T02:33:13.753Z,6.20
2023-06-03T02:35:40.220Z,6.70
2023-06-03T02:38:06.747Z,7.30
2023-06-03T02:40:33.251Z,6.00
2023-06-03T02:42:59.859Z,6.60
2023-06-03T02:45:26.337Z,7.30
2023-06-03T02:47:52.974Z,7.00
2023-06-03T02:50:19.535Z,7.00
2023-06-03T02:52:46.040Z,6.20
2023-06-03T02:55:12.669Z,5.80
2023-06-03T02:57:39.297Z,5.90
2023-06-03T03:00:06.808Z,6.30
2023-06-03T03:02:33.382Z,6.00
2023-06-03T03:05:00.012Z,6.00
2023-06-03T03:07:26.516Z,5.60
2023-06-03T03:09:53.134Z,5.60
2023-06-03T03:12:19.571Z,6.20
2023-06-03T03:14:46.320Z,6.30
2023-06-03T03:17:12.813Z,5.10
2023-06-03T03:19:39.522Z,4.50
2023-06-03T03:22:06.693Z,4.20
2023-06-03T03:24:33.426Z,4.10
2023-06-03T03:27:00.805Z,3.60
2023-06-03T03:29:27.517Z,3.50
2023-06-03T03:32:03.338Z,3.10
2023-06-03T03:34:30.280Z,3.30
2023-06-03T03:36:56.939Z,3.20
2023-06-03T03:39:23.417Z,2.90
2023-06-03T03:41:49.872Z,2.80
2023-06-03T03:44:16.375Z,3.00
2023-06-03T03:46:59.622Z,3.40
2023-06-03T03:49:31.510Z,3.10
2023-06-03T03:52:04.451Z,4.00
2023-06-03T03:54:31.755Z,5.30
2023-06-03T03:56:58.975Z,4.70
2023-06-03T03:59:27.994Z,3.90
2023-06-03T04:01:54.998Z,3.00
2023-06-03T04:04:43.685Z,3.30
2023-06-03T04:07:11.088Z,3.20
2023-06-03T04:09:38.550Z,3.20
2023-06-03T04:12:11.289Z,3.40
2023-06-03T04:14:46.648Z,3.00
2023-06-03T04:17:13.988Z,3.10
2023-06-03T04:19:40.915Z,2.80
2023-06-03T04:22:09.093Z,3.20
2023-06-03T04:24:37.948Z,2.50
2023-06-03T04:27:05.069Z,3.10
2023-06-03T04:29:32.117Z,3.10
2023-06-03T04:31:58.972Z,3.10
2023-06-03T04:34:29.701Z,3.30
2023-06-03T04:36:56.587Z,3.00
2023-06-03T04:39:23.631Z,3.70
2023-06-03T04:41:50.155Z,3.70
2023-06-03T04:44:16.705Z,3.30
2023-06-03T04:46:43.385Z,3.00
2023-06-03T04:49:09.934Z,3.50
2023-06-03T04:51:36.431Z,3.30
2023-06-03T04:54:03.505Z,3.30
2023-06-03T04:56:29.974Z,3.50
2023-06-03T04:59:01.045Z,3.30
2023-06-03T05:01:28.337Z,3.40
2023-06-03T05:03:56.046Z,3.10
2023-06-03T05:06:22.765Z,2.70
2023-06-03T05:08:49.663Z,2.70
2023-06-03T05:11:17.463Z,2.90
2023-06-03T05:13:44.430Z,2.70
2023-06-03T05:16:12.316Z,2.60
2023-06-03T05:18:38.967Z,2.40
2023-06-03T05:21:05.981Z,2.50
2023-06-03T05:23:32.670Z,2.50
2023-06-03T05:25:59.262Z,2.40
2023-06-03T05:28:26.576Z,2.50
2023-06-03T05:30:53.181Z,2.50
2023-06-03T05:33:30.014Z,2.70
2023-06-03T05:35:57.199Z,1.90
2023-06-03T05:38:24.798Z,2.70
2023-06-03T05:40:52.632Z,2.20
2023-06-03T05:43:20.204Z,2.10
2023-06-03T05:45:47.713Z,2.00
2023-06-03T05:48:14.777Z,2.00
2023-06-03T05:50:50.309Z,1.80
2023-06-03T05:53:20.781Z,1.90
2023-06-03T05:55:48.754Z,1.90
2023-06-03T05:58:15.299Z,1.90
2023-06-03T06:00:41.821Z,2.10
2023-06-03T06:03:09.668Z,1.50
2023-06-03T06:05:36.448Z,1.80
2023-06-03T06:08:02.979Z,1.70
2023-06-03T06:10:29.513Z,2.40
2023-06-03T06:12:56.102Z,2.10
2023-06-03T06:15:22.993Z,2.00
2023-06-03T06:17:49.543Z,1.90
2023-06-03T06:20:16.104Z,2.10
2023-06-03T06:22:42.704Z,1.80
2023-06-03T06:25:10.218Z,2.00
2023-06-03T06:27:36.975Z,1.90
2023-06-03T06:30:04.211Z,1.80
2023-06-03T06:32:31.040Z,2.00
2023-06-03T06:34:57.881Z,2.10
2023-06-03T06:37:24.483Z,2.00
2023-06-03T06:39:54.377Z,1.80
2023-06-03T06:42:33.032Z,2.10
2023-06-03T06:45:22.933Z,1.90
2023-06-03T06:47:49.702Z,2.50
2023-06-03T06:50:51.798Z,1.80
2023-06-03T06:53:19.273Z,1.80
2023-06-03T06:55:56.276Z,2.10
2023-06-03T06:58:25.629Z,2.30
2023-06-03T07:00:53.383Z,2.40
2023-06-03T07:03:21.200Z,2.80
2023-06-03T07:05:48.338Z,2.10
2023-06-03T07:08:15.635Z,2.30
2023-06-03T07:10:42.172Z,2.10
2023-06-03T07:13:08.977Z,2.20
2023-06-03T07:15:40.072Z,1.90
2023-06-03T07:18:07.191Z,2.50
2023-06-03T07:20:36.430Z,2.30
2023-06-03T07:23:10.086Z,2.00
2023-06-03T07:25:47.472Z,2.30
2023-06-03T07:28:22.023Z,2.10
2023-06-03T07:30:49.524Z,2.50
2023-06-03T07:33:30.789Z,2.40
2023-06-03T07:36:02.587Z,2.10
2023-06-03T07:38:38.337Z,1.90
2023-06-03T07:41:09.528Z,1.90
2023-06-03T07:43:37.591Z,1.80
2023-06-03T07:46:05.326Z,1.40
2023-06-03T07:48:32.963Z,1.70
2023-06-03T07:50:59.658Z,1.50
2023-06-03T07:53:26.502Z,1.90
2023-06-03T07:55:53.014Z,1.70
2023-06-03T07:58:19.560Z,2.00
2023-06-03T08:00:53.035Z,2.20
2023-06-03T08:03:21.391Z,1.80
2023-06-03T08:05:50.089Z,2.00
2023-06-03T08:08:18.566Z,1.90
2023-06-03T08:10:49.437Z,1.80
2023-06-03T08:13:19.180Z,1.90
2023-06-03T08:15:45.662Z,1.90
2023-06-03T08:18:33.928Z,1.60
2023-06-03T08:21:04.481Z,2.50
2023-06-03T08:23:31.472Z,1.70
2023-06-03T08:26:00.886Z,1.90
2023-06-03T08:28:27.795Z,1.70
2023-06-03T08:30:54.898Z,1.90
2023-06-03T08:33:21.756Z,2.10
2023-06-03T08:35:48.581Z,1.80
2023-06-03T08:38:16.966Z,2.10
2023-06-03T08:40:51.696Z,1.80
2023-06-03T08:43:21.390Z,1.80
2023-06-03T08:46:03.652Z,1.60
2023-06-03T08:49:04.509Z,1.30
2023-06-03T08:51:41.759Z,1.60
2023-06-03T08:54:12.839Z,1.80
2023-06-03T08:56:42.797Z,1.50
2023-06-03T08:59:13.944Z,1.80
2023-06-03T09:01:43.168Z,1.70
2023-06-03T09:04:14.870Z,1.50
2023-06-03T09:06:47.722Z,1.60
2023-06-03T09:09:16.379Z,1.50
2023-06-03T09:11:45.252Z,1.40
2023-06-03T09:14:12.298Z,1.40
2023-06-03T09:16:39.610Z,1.50
2023-06-03T09:19:06.824Z,1.60
2023-06-03T09:21:34.042Z,1.80
2023-06-03T09:24:00.574Z,1.60
2023-06-03T09:26:27.226Z,1.30
2023-06-03T09:28:53.794Z,1.40
2023-06-03T09:31:21.338Z,1.70
2023-06-03T09:33:49.056Z,1.20
2023-06-03T09:36:18.102Z,1.50
2023-06-03T09:38:54.930Z,2.60
2023-06-03T09:41:29.066Z,1.60
2023-06-03T09:44:03.422Z,1.40
2023-06-03T09:46:39.108Z,1.40
2023-06-03T09:49:10.147Z,1.60
2023-06-03T09:51:47.594Z,1.70
2023-06-03T09:54:17.382Z,1.70
2023-06-03T09:56:46.320Z,1.50
2023-06-03T09:59:21.394Z,1.80
2023-06-03T10:01:50.576Z,1.40
2023-06-03T10:04:25.856Z,1.60
2023-06-03T10:07:15.620Z,1.70
2023-06-03T10:09:43.877Z,1.40
2023-06-03T10:12:11.027Z,1.20
2023-06-03T10:14:56.395Z,1.70
2023-06-03T10:17:22.946Z,1.40
2023-06-03T10:19:49.787Z,1.50
2023-06-03T10:22:17.877Z,1.60
2023-06-03T10:24:46.507Z,1.50
2023-06-03T10:27:14.793Z,1.40
2023-06-03T10:29:41.811Z,1.50
2023-06-03T10:32:10.372Z,1.50
2023-06-03T10:34:40.997Z,1.50
2023-06-03T10:37:09.375Z,1.70
2023-06-03T10:39:36.475Z,1.90
2023-06-03T10:42:06.513Z,1.90
2023-06-03T10:44:34.442Z,2.00
2023-06-03T10:47:09.088Z,1.70
2023-06-03T10:49:45.116Z,1.50
2023-06-03T10:52:59.901Z,1.60
2023-06-03T10:55:58.116Z,1.70
2023-06-03T10:58:25.913Z,1.80
2023-06-03T11:00:59.527Z,1.60
2023-06-03T11:03:31.040Z,1.70
2023-06-03T11:06:19.518Z,2.10
2023-06-03T11:09:07.019Z,1.50
2023-06-03T11:11:39.840Z,1.60
2023-06-03T11:14:06.539Z,1.50
2023-06-03T11:16:58.086Z,1.80
2023-06-03T11:19:33.646Z,1.80
2023-06-03T11:22:01.893Z,1.50
2023-06-03T11:24:40.647Z,1.70
2023-06-03T11:27:13.504Z,1.70
2023-06-03T11:29:46.096Z,1.90
2023-06-03T11:32:13.467Z,1.90
2023-06-03T11:34:40.199Z,1.60
2023-06-03T11:37:06.689Z,1.70
2023-06-03T11:40:05.914Z,1.90
2023-06-03T11:42:52.796Z,1.90
2023-06-03T11:45:22.184Z,1.50
2023-06-03T11:47:57.941Z,1.60
2023-06-03T11:50:27.400Z,2.40
2023-06-03T11:52:54.769Z,1.90
2023-06-03T11:55:25.884Z,1.60
2023-06-03T11:57:53.127Z,1.40
2023-06-03T12:00:20.300Z,1.40
2023-06-03T12:02:47.475Z,1.50
2023-06-03T12:05:15.893Z,1.50
2023-06-03T12:07:52.985Z,1.30
2023-06-03T12:10:19.619Z,1.60
2023-06-03T12:12:56.247Z,1.40
2023-06-03T12:15:24.719Z,1.40
2023-06-03T12:17:52.550Z,1.70
2023-06-03T12:20:30.103Z,1.50
2023-06-03T12:23:00.393Z,1.20
2023-06-03T12:25:27.798Z,1.50
2023-06-03T12:27:55.739Z,1.30
2023-06-03T12:30:30.240Z,1.50
2023-06-03T12:32:56.887Z,1.40
2023-06-03T12:35:23.798Z,1.80
2023-06-03T12:38:03.797Z,1.50
2023-06-03T12:40:30.317Z,1.40
2023-06-03T12:42:57.325Z,1.50
2023-06-03T12:45:26.350Z,1.30
2023-06-03T12:47:54.243Z,1.40
2023-06-03T12:50:20.952Z,1.20
2023-06-03T12:52:48.512Z,1.30
2023-06-03T12:55:16.982Z,1.70
2023-06-03T12:57:48.523Z,1.40
2023-06-03T13:00:18.227Z,1.60
2023-06-03T13:02:47.339Z,1.80
2023-06-03T13:05:15.079Z,1.50
2023-06-03T13:07:43.216Z,1.60
2023-06-03T13:10:12.049Z,1.80
2023-06-03T13:12:40.353Z,1.20
2023-06-03T13:15:07.875Z,1.30
2023-06-03T13:17:35.219Z,1.40
2023-06-03T13:20:04.066Z,1.70
2023-06-03T13:22:30.611Z,1.40
2023-06-03T13:24:57.114Z,1.70
2023-06-03T13:27:23.942Z,1.80
2023-06-03T13:29:51.050Z,1.90
2023-06-03T13:32:17.640Z,1.50
2023-06-03T13:34:44.530Z,1.30
2023-06-03T13:37:11.469Z,1.50
2023-06-03T13:39:39.063Z,1.40
2023-06-03T13:42:06.996Z,1.30
2023-06-03T13:44:34.250Z,1.90
2023-06-03T13:47:05.597Z,2.10
2023-06-03T13:49:32.230Z,1.50
2023-06-03T13:51:58.916Z,1.30
2023-06-03T13:54:25.637Z,1.70
2023-06-03T13:56:52.451Z,1.60
2023-06-03T13:59:18.928Z,1.40
2023-06-03T14:01:45.385Z,2.10
2023-06-03T14:04:12.267Z,1.40
2023-06-03T14:06:38.733Z,1.20
2023-06-03T14:09:05.363Z,1.50
2023-06-03T14:11:32.205Z,1.20
2023-06-03T14:13:58.756Z,1.30
2023-06-03T14:16:25.670Z,1.40
2023-06-03T14:18:52.256Z,1.40
2023-06-03T14:21:18.798Z,1.60
2023-06-03T14:23:45.454Z,1.40
2023-06-03T14:26:12.054Z,1.30
2023-06-03T14:28:38.518Z,1.20
2023-06-03T14:31:05.044Z,1.20
2023-06-03T14:33:31.726Z,1.40
2023-06-03T14:35:58.195Z,1.30
2023-06-03T14:38:24.704Z,1.30
2023-06-03T14:40:51.241Z,1.10
2023-06-03T14:43:18.083Z,1.40
2023-06-03T14:45:44.828Z,1.30
2023-06-03T14:48:11.560Z,1.10
2023-06-03T14:50:38.255Z,1.20
2023-06-03T14:53:06.026Z,1.30
2023-06-03T14:55:32.657Z,1.50
2023-06-03T14:57:59.594Z,1.80
2023-06-03T15:00:26.094Z,1.50
2023-06-03T15:02:52.721Z,1.30
2023-06-03T15:05:19.440Z,1.50
2023-06-03T15:07:46.084Z,1.60
2023-06-03T15:10:12.932Z,1.50
2023-06-03T15:12:39.422Z,1.30
2023-06-03T15:15:07.019Z,1.70
2023-06-03T15:17:33.576Z,2.00
2023-06-03T15:20:00.156Z,1.80
2023-06-03T15:22:26.739Z,1.40
2023-06-03T15:24:53.290Z,1.50
2023-06-03T15:27:19.735Z,1.70
2023-06-03T15:29:46.194Z,1.50
2023-06-03T15:32:12.715Z,1.60
2023-06-03T15:34:39.173Z,1.30
2023-06-03T15:37:05.669Z,1.40
2023-06-03T15:39:32.179Z,1.50
2023-06-03T15:41:58.679Z,1.30
2023-06-03T15:44:25.952Z,1.50
2023-06-03T15:46:52.545Z,1.30
2023-06-03T15:49:19.258Z,1.40
2023-06-03T15:51:45.779Z,1.30
2023-06-03T15:54:12.335Z,1.60
2023-06-03T15:56:38.792Z,1.50
2023-06-03T15:59:05.348Z,1.30
2023-06-03T16:01:32.552Z,1.50
2023-06-03T16:03:59.100Z,1.50
2023-06-03T16:06:25.742Z,1.40
2023-06-03T16:08:52.599Z,1.40
2023-06-03T16:11:20.098Z,1.40
2023-06-03T16:13:46.617Z,1.30
2023-06-03T16:16:13.092Z,1.40
2023-06-03T16:18:39.525Z,1.10
2023-06-03T16:21:06.133Z,2.10
2023-06-03T16:23:32.743Z,1.40
2023-06-03T16:25:59.470Z,1.60
2023-06-03T16:28:27.287Z,1.30
2023-06-03T16:30:54.024Z,1.80
2023-06-03T16:33:20.924Z,1.50
2023-06-03T16:35:47.445Z,1.70
2023-06-03T16:38:14.172Z,1.40
2023-06-03T16:40:40.805Z,1.60
2023-06-03T16:43:07.275Z,1.50
2023-06-03T16:45:35.295Z,1.50
2023-06-03T16:48:03.621Z,1.60
2023-06-03T16:50:30.204Z,1.30
2023-06-03T16:52:56.696Z,1.60
2023-06-03T16:55:23.197Z,1.40
2023-06-03T16:57:49.875Z,1.50
2023-06-03T17:00:16.893Z,1.40
2023-06-03T17:02:43.344Z,1.50
2023-06-03T17:05:09.893Z,1.50
2023-06-03T17:07:36.514Z,1.40
2023-06-03T17:10:03.228Z,2.40
2023-06-03T17:12:29.886Z,2.30
2023-06-03T17:14:56.493Z,1.60
2023-06-03T17:17:23.014Z,2.40
2023-06-03T17:19:49.502Z,2.50
2023-06-03T17:22:16.099Z,2.50
2023-06-03T17:24:42.605Z,2.30
2023-06-03T17:27:09.083Z,2.40
2023-06-03T17:29:35.593Z,2.00
2023-06-03T17:32:02.387Z,2.10
2023-06-03T17:34:29.019Z,1.80
2023-06-03T17:36:55.789Z,2.20
2023-06-03T17:39:22.285Z,2.20
2023-06-03T17:41:49.068Z,2.10
2023-06-03T17:44:19.685Z,2.20
2023-06-03T17:46:46.440Z,2.40
2023-06-03T17:49:13.073Z,2.30
2023-06-03T17:51:39.769Z,2.10
2023-06-03T17:54:06.524Z,2.40
2023-06-03T17:56:32.995Z,2.20
2023-06-03T17:58:59.652Z,2.30
2023-06-03T18:01:26.243Z,2.30
2023-06-03T18:03:52.748Z,2.90
2023-06-03T18:06:19.538Z,2.80
2023-06-03T18:08:46.103Z,2.70
2023-06-03T18:11:12.680Z,2.70
2023-06-03T18:13:39.464Z,2.60
2023-06-03T18:16:06.755Z,2.90
2023-06-03T18:18:33.384Z,3.10
2023-06-03T18:20:59.977Z,3.10
2023-06-03T18:23:26.491Z,3.10
2023-06-03T18:25:52.980Z,4.10
2023-06-03T18:28:19.519Z,4.40
2023-06-03T18:30:46.025Z,4.40
2023-06-03T18:33:12.596Z,5.00
2023-06-03T18:35:39.112Z,4.20
2023-06-03T18:38:05.697Z,3.90
2023-06-03T18:40:32.144Z,3.50
2023-06-03T18:42:58.657Z,3.60
2023-06-03T18:45:25.388Z,3.70
2023-06-03T18:47:51.948Z,3.80
2023-06-03T18:50:18.685Z,4.30
2023-06-03T18:52:45.159Z,4.50
2023-06-03T18:55:11.789Z,3.80
2023-06-03T18:57:38.313Z,5.00
2023-06-03T19:00:05.364Z,4.00
2023-06-03T19:02:32.075Z,4.50
2023-06-03T19:04:58.787Z,4.70
2023-06-03T19:07:25.427Z,5.80
2023-06-03T19:09:52.064Z,5.20
2023-06-03T19:12:18.669Z,4.70
2023-06-03T19:14:45.417Z,4.70
2023-06-03T19:17:11.931Z,4.90
2023-06-03T19:19:38.443Z,6.10
2023-06-03T19:22:05.596Z,5.40
2023-06-03T19:24:32.110Z,5.30
2023-06-03T19:26:58.709Z,5.80
2023-06-03T19:29:25.241Z,5.50
2023-06-03T19:31:51.778Z,6.20
2023-06-03T19:34:18.367Z,8.90
2023-06-03T19:36:44.911Z,8.20
2023-06-03T19:39:11.481Z,8.30
2023-06-03T19:41:38.161Z,8.90
2023-06-03T19:44:04.674Z,8.80
2023-06-03T19:46:31.172Z,10.50
2023-06-03T19:48:57.881Z,9.90
2023-06-03T19:51:24.334Z,9.40
2023-06-03T19:53:50.798Z,9.80
2023-06-03T19:56:17.449Z,10.50
2023-06-03T19:58:44.129Z,9.80
2023-06-03T20:01:11.027Z,11.20
2023-06-03T20:03:37.953Z,10.40
2023-06-03T20:06:04.506Z,10.50
2023-06-03T20:08:31.131Z,10.80
2023-06-03T20:10:57.727Z,9.90
2023-06-03T20:13:34.003Z,8.30
2023-06-03T20:16:06.573Z,8.20
2023-06-03T20:18:33.872Z,10.20
2023-06-03T20:21:00.815Z,8.80
2023-06-03T20:23:27.401Z,8.80
2023-06-03T20:25:54.168Z,9.20
2023-06-03T20:28:20.826Z,8.20
2023-06-03T20:30:47.338Z,8.00
2023-06-03T20:33:13.918Z,8.30
2023-06-03T20:35:40.368Z,8.10
2023-06-03T20:38:07.080Z,8.40
2023-06-03T20:40:36.861Z,8.60
2023-06-03T20:43:03.337Z,8.80
2023-06-03T20:45:30.757Z,9.20
2023-06-03T20:47:57.427Z,9.30
2023-06-03T20:50:24.498Z,8.70
2023-06-03T20:52:51.249Z,8.00
2023-06-03T20:55:17.796Z,8.60
2023-06-03T20:57:44.359Z,8.70
2023-06-03T21:00:11.342Z,9.10
2023-06-03T21:02:37.996Z,8.60
2023-06-03T21:05:04.968Z,8.90
2023-06-03T21:07:31.698Z,8.90
2023-06-03T21:09:58.145Z,9.00
2023-06-03T21:12:24.630Z,8.50
2023-06-03T21:14:52.391Z,9.00
2023-06-03T21:17:20.132Z,9.00
2023-06-03T21:19:47.301Z,10.40
2023-06-03T21:22:13.940Z,10.50
2023-06-03T21:24:40.491Z,9.20
2023-06-03T21:27:07.171Z,9.40
2023-06-03T21:29:33.825Z,9.80
2023-06-03T21:32:00.572Z,9.90
2023-06-03T21:34:27.288Z,9.30
2023-06-03T21:36:53.797Z,10.00
2023-06-03T21:39:20.283Z,9.70
2023-06-03T21:41:46.980Z,10.20
2023-06-03T21:44:13.508Z,9.20
2023-06-03T21:46:40.477Z,9.20
2023-06-03T21:49:06.948Z,10.10
2023-06-03T21:51:34.240Z,9.40
2023-06-03T21:54:00.934Z,10.40
2023-06-03T21:56:27.429Z,9.50
2023-06-03T21:58:54.088Z,8.90
2023-06-03T22:01:20.670Z,9.10
2023-06-03T22:03:47.431Z,8.10
2023-06-03T22:06:14.236Z,9.20
2023-06-03T22:08:40.770Z,8.90
2023-06-03T22:11:07.553Z,8.10
2023-06-03T22:13:34.499Z,9.10
2023-06-03T22:16:01.223Z,8.90
2023-06-03T22:18:27.743Z,8.30
2023-06-03T22:20:54.523Z,10.30
2023-06-03T22:23:22.205Z,8.90
2023-06-03T22:25:48.838Z,9.30
2023-06-03T22:28:15.339Z,9.80
2023-06-03T22:30:41.840Z,10.80
2023-06-03T22:33:08.753Z,10.50
2023-06-03T22:35:38.339Z,9.90
2023-06-03T22:38:04.999Z,9.10
2023-06-03T22:40:31.663Z,9.20
2023-06-03T22:42:58.239Z,8.30
2023-06-03T22:45:24.899Z,8.60
2023-06-03T22:47:51.998Z,8.90
2023-06-03T22:50:19.573Z,11.00
2023-06-03T22:52:46.039Z,9.20
2023-06-03T22:55:12.654Z,9.00
2023-06-03T22:57:39.195Z,8.20
2023-06-03T23:00:06.904Z,7.70
2023-06-03T23:02:33.580Z,7.90
2023-06-03T23:05:00.357Z,7.40
2023-06-03T23:07:26.935Z,7.70
2023-06-03T23:09:53.738Z,8.80
2023-06-03T23:12:20.380Z,8.50
2023-06-03T23:14:46.828Z,8.50
2023-06-03T23:17:13.402Z,8.50
2023-06-03T23:19:40.918Z,8.10
2023-06-03T23:22:07.742Z,8.50
2023-06-03T23:24:34.211Z,9.00
2023-06-03T23:27:00.724Z,8.40
2023-06-03T23:29:27.182Z,8.70
2023-06-03T23:31:53.700Z,8.20
2023-06-03T23:34:20.380Z,9.80
2023-06-03T23:36:46.927Z,9.90
2023-06-03T23:39:13.420Z,9.60
2023-06-03T23:41:39.988Z,10.10
2023-06-03T23:44:06.675Z,10.80
2023-06-03T23:46:33.251Z,10.70
2023-06-03T23:48:59.931Z,9.30
2023-06-03T23:51:26.647Z,9.80
2023-06-03T23:53:53.229Z,9.90
2023-06-03T23:56:19.760Z,8.40
2023-06-03T23:58:46.447Z,8.30
